createdAt,value
2018-12-21T00:01:12.316Z,100234.98
2018-12-21T00:03:40.978Z,100228.22
2018-12-21T00:06:09.644Z,100230.67
2018-12-21T00:08:38.382Z,100223.22
2018-12-21T00:11:07.460Z,100225.80
2018-12-21T00:13:36.349Z,100217.70
2018-12-21T00:16:04.978Z,100209.19
2018-12-21T00:18:33.721Z,100212.34
2018-12-21T00:21:02.434Z,100208.88
2018-12-21T00:23:31.137Z,100205.66
2018-12-21T00:25:59.922Z,100205.67
2018-12-21T00:28:28.605Z,100202.63
2018-12-21T00:31:02.641Z,100195.27
2018-12-21T00:33:36.611Z,100193.69
2018-12-21T00:36:10.739Z,100188.13
2018-12-21T00:38:45.033Z,100189.45
2018-12-21T00:41:13.806Z,100192.55
2018-12-21T00:44:06.778Z,100190.59
2018-12-21T00:46:41.249Z,100194.16
2018-12-21T00:49:09.953Z,100188.13
2018-12-21T00:51:38.692Z,100188.38
2018-12-21T00:54:07.616Z,100190.74
2018-12-21T00:56:36.355Z,100198.62
2018-12-21T00:59:05.133Z,100188.91
2018-12-21T01:01:33.876Z,100186.06
2018-12-21T01:04:02.722Z,100188.80
2018-12-21T01:06:31.439Z,100182.34
2018-12-21T01:09:01.349Z,100185.45
2018-12-21T01:11:31.570Z,100179.87
2018-12-21T01:14:00.254Z,100176.88
2018-12-21T01:16:29.026Z,100183.66
2018-12-21T01:18:57.838Z,100179.09
2018-12-21T01:21:26.569Z,100187.86
2018-12-21T01:23:55.690Z,100189.06
2018-12-21T01:26:24.611Z,100192.63
2018-12-21T01:28:53.478Z,100194.85
2018-12-21T01:31:22.160Z,100192.52
2018-12-21T01:33:50.953Z,100194.16
2018-12-21T01:36:20.130Z,100186.06
2018-12-21T01:38:48.833Z,100195.64
2018-12-21T01:41:18.173Z,100196.25
2018-12-21T01:43:46.950Z,100190.23
2018-12-21T01:46:15.693Z,100185.06
2018-12-21T01:48:44.499Z,100186.02
2018-12-21T01:51:13.319Z,100187.60
2018-12-21T01:53:42.239Z,100181.23
2018-12-21T01:56:10.934Z,100184.81
2018-12-21T01:58:39.722Z,100182.19
2018-12-21T02:01:08.464Z,100189.02
2018-12-21T02:03:37.363Z,100180.02
2018-12-21T02:06:06.153Z,100184.77
2018-12-21T02:08:34.858Z,100178.71
2018-12-21T02:11:03.578Z,100172.30
2018-12-21T02:13:32.632Z,100175.72
2018-12-21T02:16:01.322Z,100177.17
2018-12-21T02:18:30.001Z,100171.25
2018-12-21T02:20:58.797Z,100166.94
2018-12-21T02:23:27.482Z,100167.20
2018-12-21T02:25:56.137Z,100165.56
2018-12-21T02:28:24.942Z,100163.24
2018-12-21T02:30:53.743Z,100158.89
2018-12-21T02:33:22.663Z,100163.88
2018-12-21T02:35:51.422Z,100144.86
2018-12-21T02:38:20.129Z,100169.45
2018-12-21T02:40:48.898Z,100165.55
2018-12-21T02:43:17.610Z,100155.83
2018-12-21T02:45:46.618Z,100152.30
2018-12-21T02:48:15.396Z,100157.12
2018-12-21T02:50:45.441Z,100141.57
2018-12-21T02:53:14.237Z,100139.59
2018-12-21T02:55:43.449Z,100134.75
2018-12-21T02:58:12.135Z,100135.22
2018-12-21T03:00:40.913Z,100132.20
2018-12-21T03:03:09.825Z,100122.55
2018-12-21T03:05:38.594Z,100117.81
2018-12-21T03:08:07.917Z,100117.50
2018-12-21T03:10:36.750Z,100111.83
2018-12-21T03:13:05.448Z,100109.25
2018-12-21T03:15:34.686Z,100109.14
2018-12-21T03:18:03.450Z,100098.69
2018-12-21T03:20:32.381Z,100105.67
2018-12-21T03:23:01.084Z,100105.80
2018-12-21T03:25:29.816Z,100098.59
2018-12-21T03:27:58.838Z,100094.39
2018-12-21T03:30:27.711Z,100090.66
2018-12-21T03:32:56.535Z,100083.98
2018-12-21T03:35:26.471Z,100083.14
2018-12-21T03:37:56.127Z,100083.27
2018-12-21T03:40:24.939Z,100078.52
2018-12-21T03:42:53.691Z,100076.42
2018-12-21T03:45:22.526Z,100065.41
2018-12-21T03:47:51.284Z,100058.73
2018-12-21T03:50:20.214Z,100057.20
2018-12-21T03:52:48.920Z,100051.22
2018-12-21T03:55:17.740Z,100050.95
2018-12-21T03:57:46.477Z,100048.01
2018-12-21T04:00:15.292Z,100044.48
2018-12-21T04:02:45.275Z,100039.38
2018-12-21T04:05:14.036Z,100040.85
2018-12-21T04:07:42.803Z,100044.85
2018-12-21T04:10:11.570Z,100036.06
2018-12-21T04:12:40.327Z,100027.71
2018-12-21T04:15:09.150Z,100024.02
2018-12-21T04:17:37.932Z,100024.73
2018-12-21T04:20:06.778Z,100023.70
2018-12-21T04:22:35.543Z,100018.05
2018-12-21T04:25:04.817Z,100023.52
2018-12-21T04:27:33.502Z,100011.80
2018-12-21T04:30:02.480Z,100002.06
2018-12-21T04:32:32.481Z,99999.66
2018-12-21T04:35:01.237Z,100005.53
2018-12-21T04:37:29.981Z,100003.69
2018-12-21T04:39:58.747Z,100002.06
2018-12-21T04:42:27.527Z,99991.86
2018-12-21T04:44:56.256Z,99995.52
2018-12-21T04:47:24.969Z,99988.47
2018-12-21T04:49:53.791Z,99984.52
2018-12-21T04:52:22.587Z,99983.69
2018-12-21T04:54:51.301Z,99985.83
2018-12-21T04:57:20.079Z,99983.07
2018-12-21T04:59:48.888Z,99983.91
2018-12-21T05:02:18.016Z,99977.48
2018-12-21T05:04:46.765Z,99971.02
2018-12-21T05:07:15.522Z,99972.23
2018-12-21T05:09:44.282Z,99964.76
2018-12-21T05:12:13.031Z,99947.98
2018-12-21T05:14:41.692Z,99943.73
2018-12-21T05:17:11.041Z,99940.70
2018-12-21T05:19:39.857Z,99938.09
2018-12-21T05:22:08.723Z,99927.56
2018-12-21T05:24:37.919Z,99927.64
2018-12-21T05:27:06.663Z,99929.87
2018-12-21T05:29:35.546Z,99921.84
2018-12-21T05:32:04.495Z,99915.05
2018-12-21T05:34:33.227Z,99913.80
2018-12-21T05:37:01.978Z,99904.05
2018-12-21T05:39:30.655Z,99905.00
2018-12-21T05:41:59.447Z,99892.53
2018-12-21T05:44:28.157Z,99893.23
2018-12-21T05:46:57.018Z,99888.42
2018-12-21T05:49:26.491Z,99882.55
2018-12-21T05:51:55.281Z,99882.45
2018-12-21T05:54:24.056Z,99878.44
2018-12-21T05:56:52.758Z,99877.50
2018-12-21T05:59:21.642Z,99881.08
2018-12-21T06:01:50.315Z,99875.21
2018-12-21T06:04:19.015Z,99870.55
2018-12-21T06:06:47.668Z,99864.33
2018-12-21T06:09:16.433Z,99858.18
2018-12-21T06:11:45.259Z,99850.47
2018-12-21T06:14:14.134Z,99847.23
2018-12-21T06:16:43.103Z,99847.55
2018-12-21T06:19:12.363Z,99842.41
2018-12-21T06:21:41.871Z,99842.11
2018-12-21T06:24:10.669Z,99831.47
2018-12-21T06:26:40.761Z,99823.31
2018-12-21T06:29:09.961Z,99823.88
2018-12-21T06:31:38.670Z,99818.52
2018-12-21T06:34:07.388Z,99811.18
2018-12-21T06:36:37.506Z,99812.61
2018-12-21T06:39:07.950Z,99810.69
2018-12-21T06:41:37.101Z,99804.11
2018-12-21T06:44:05.769Z,99802.81
2018-12-21T06:46:34.463Z,99801.78
2018-12-21T06:49:03.199Z,99799.77
2018-12-21T06:51:32.100Z,99795.63
2018-12-21T06:54:00.831Z,99793.75
2018-12-21T06:56:29.814Z,99786.26
2018-12-21T06:58:58.546Z,99787.09
2018-12-21T07:01:27.535Z,99779.98
2018-12-21T07:03:56.513Z,99782.13
2018-12-21T07:06:25.192Z,99767.91
2018-12-21T07:08:53.886Z,99777.16
2018-12-21T07:11:22.821Z,99778.38
2018-12-21T07:13:51.682Z,99769.89
2018-12-21T07:16:20.530Z,99759.43
2018-12-21T07:18:49.263Z,99753.48
2018-12-21T07:21:18.631Z,99748.01
2018-12-21T07:23:47.356Z,99736.14
2018-12-21T07:26:16.242Z,99741.44
2018-12-21T07:28:45.028Z,99741.33
2018-12-21T07:31:13.801Z,99735.67
2018-12-21T07:33:42.514Z,99727.08
2018-12-21T07:36:11.198Z,99722.59
2018-12-21T07:38:39.880Z,99719.04
2018-12-21T07:43:43.609Z,99706.25
2018-12-21T07:46:12.361Z,99705.30
2018-12-21T07:48:41.133Z,99696.02
2018-12-21T07:51:09.936Z,99689.77
2018-12-21T07:53:38.845Z,99687.08
2018-12-21T07:56:07.570Z,99685.87
2018-12-21T07:58:36.238Z,99685.69
2018-12-21T08:01:04.978Z,99685.95
2018-12-21T08:03:33.711Z,99685.22
2018-12-21T08:06:02.399Z,99683.32
2018-12-21T08:08:31.072Z,99673.93
2018-12-21T08:10:59.899Z,99675.77
2018-12-21T08:13:28.643Z,99670.43
2018-12-21T08:15:57.317Z,99674.33
2018-12-21T08:18:26.593Z,99666.77
2018-12-21T08:20:55.426Z,99669.14
2018-12-21T08:23:24.114Z,99663.20
2018-12-21T08:25:53.146Z,99654.41
2018-12-21T08:28:21.898Z,99652.15
2018-12-21T08:30:50.633Z,99643.04
2018-12-21T08:33:19.392Z,99640.02
2018-12-21T08:35:48.162Z,99628.30
2018-12-21T08:38:16.923Z,99630.81
2018-12-21T08:40:45.674Z,99622.56
2018-12-21T08:43:14.331Z,99622.66
2018-12-21T08:45:43.006Z,99610.23
2018-12-21T08:48:11.742Z,99603.09
2018-12-21T08:50:40.684Z,99609.78
2018-12-21T08:53:09.718Z,99601.11
2018-12-21T08:55:38.398Z,99587.70
2018-12-21T08:58:07.131Z,99584.22
2018-12-21T09:00:35.809Z,99578.86
2018-12-21T09:03:04.575Z,99564.51
2018-12-21T09:05:33.238Z,99570.62
2018-12-21T09:08:02.446Z,99560.30
2018-12-21T09:10:31.221Z,99567.44
2018-12-21T09:12:59.994Z,99574.84
2018-12-21T09:15:28.800Z,99572.03
2018-12-21T09:17:57.668Z,99565.09
2018-12-21T09:20:26.799Z,99554.48
2018-12-21T09:22:55.527Z,99555.67
2018-12-21T09:25:24.321Z,99547.80
2018-12-21T09:27:53.120Z,99550.91
2018-12-21T09:30:21.873Z,99541.59
2018-12-21T09:32:50.599Z,99532.47
2018-12-21T09:35:19.263Z,99519.51
2018-12-21T09:37:47.978Z,99518.95
2018-12-21T09:40:16.795Z,99512.38
2018-12-21T09:42:45.753Z,99501.00
2018-12-21T09:45:14.451Z,99488.98
2018-12-21T09:47:43.310Z,99478.09
2018-12-21T09:50:12.030Z,99462.13
2018-12-21T09:52:41.039Z,99454.15
2018-12-21T09:55:09.811Z,99450.37
2018-12-21T09:57:39.555Z,99447.58
2018-12-21T10:00:10.872Z,99437.05
2018-12-21T10:02:40.170Z,99428.41
2018-12-21T10:05:11.761Z,99415.63
2018-12-21T10:07:40.559Z,99409.25
2018-12-21T10:10:09.277Z,99401.92
2018-12-21T10:12:38.034Z,99401.92
2018-12-21T10:15:07.848Z,99396.09
2018-12-21T10:17:36.607Z,99377.57
2018-12-21T10:20:07.221Z,99373.91
2018-12-21T10:22:36.039Z,99358.33
2018-12-21T10:25:05.862Z,99345.17
2018-12-21T10:27:34.618Z,99335.05
2018-12-21T10:30:04.456Z,99326.27
2018-12-21T10:32:33.254Z,99318.56
2018-12-21T10:35:01.963Z,99309.11
2018-12-21T10:37:30.646Z,99303.48
2018-12-21T10:39:59.381Z,99292.64
2018-12-21T10:42:28.137Z,99283.94
2018-12-21T10:44:57.475Z,99272.10
2018-12-21T10:47:26.991Z,99258.05
2018-12-21T10:49:55.723Z,99253.28
2018-12-21T10:52:24.558Z,99243.90
2018-12-21T10:54:53.334Z,99235.78
2018-12-21T10:57:22.297Z,99230.17
2018-12-21T10:59:51.145Z,99220.72
2018-12-21T11:02:20.050Z,99215.36
2018-12-21T11:04:48.846Z,99206.43
2018-12-21T11:07:17.729Z,99191.41
2018-12-21T11:09:46.731Z,99187.13
2018-12-21T11:12:15.388Z,99183.77
2018-12-21T11:14:44.078Z,99175.11
2018-12-21T11:17:12.844Z,99165.53
2018-12-21T11:19:41.538Z,99168.52
2018-12-21T11:22:10.215Z,99158.23
2018-12-21T11:24:38.907Z,99156.48
2018-12-21T11:27:07.838Z,99151.12
2018-12-21T11:29:36.574Z,99152.10
2018-12-21T11:32:05.338Z,99144.03
2018-12-21T11:34:34.111Z,99140.11
2018-12-21T11:37:03.765Z,99129.02
2018-12-21T11:39:32.801Z,99126.64
2018-12-21T11:42:02.240Z,99114.16
2018-12-21T11:44:30.913Z,99105.16
2018-12-21T11:46:59.909Z,99093.06
2018-12-21T11:49:28.938Z,99085.13
2018-12-21T11:51:57.658Z,99082.28
2018-12-21T11:54:27.122Z,99070.13
2018-12-21T11:56:55.911Z,99068.22
2018-12-21T11:59:24.654Z,99058.91
2018-12-21T12:01:53.798Z,99044.45
2018-12-21T12:04:22.876Z,99048.39
2018-12-21T12:06:51.725Z,99042.88
2018-12-21T12:09:20.494Z,99029.23
2018-12-21T12:11:49.462Z,99022.93
2018-12-21T12:14:18.477Z,99014.45
2018-12-21T12:16:47.341Z,99006.64
2018-12-21T12:19:16.195Z,98995.09
2018-12-21T12:21:45.025Z,98986.64
2018-12-21T12:24:13.786Z,98980.52
2018-12-21T12:26:44.543Z,98974.34
2018-12-21T12:29:13.411Z,98964.11
2018-12-21T12:31:43.012Z,98965.13
2018-12-21T12:34:12.074Z,98952.23
2018-12-21T12:36:41.140Z,98940.59
2018-12-21T12:39:09.934Z,98936.95
2018-12-21T12:41:38.709Z,98926.05
2018-12-21T12:44:07.614Z,98915.24
2018-12-21T12:46:36.402Z,98908.73
2018-12-21T12:49:05.182Z,98905.53
2018-12-21T12:51:33.884Z,98891.84
2018-12-21T12:54:02.607Z,98894.82
2018-12-21T12:56:31.378Z,98893.55
2018-12-21T12:59:00.104Z,98890.35
2018-12-21T13:01:29.150Z,98888.72
2018-12-21T13:03:57.828Z,98883.47
2018-12-21T13:06:27.399Z,98878.00
2018-12-21T13:08:56.090Z,98874.63
2018-12-21T13:11:24.787Z,98879.16
2018-12-21T13:13:54.187Z,98869.91
2018-12-21T13:16:23.280Z,98862.95
2018-12-21T13:18:51.922Z,98855.16
2018-12-21T13:21:20.917Z,98856.74
2018-12-21T13:23:49.702Z,98844.23
2018-12-21T13:26:18.522Z,98838.84
2018-12-21T13:28:47.728Z,98842.34
2018-12-21T13:31:16.414Z,98826.45
2018-12-21T13:33:45.160Z,98829.65
2018-12-21T13:36:13.957Z,98820.86
2018-12-21T13:38:42.687Z,98818.52
2018-12-21T13:41:11.442Z,98814.30
2018-12-21T13:43:40.100Z,98812.30
2018-12-21T13:46:08.969Z,98803.90
2018-12-21T13:48:37.675Z,98803.44
2018-12-21T13:51:06.673Z,98809.16
2018-12-21T13:53:35.441Z,98804.84
2018-12-21T13:56:04.181Z,98785.42
2018-12-21T13:58:32.878Z,98781.10
2018-12-21T14:01:01.581Z,98786.13
2018-12-21T14:03:30.307Z,98782.70
2018-12-21T14:05:59.063Z,98779.59
2018-12-21T14:08:27.758Z,98770.14
2018-12-21T14:10:57.475Z,98776.91
2018-12-21T14:13:26.350Z,98762.20
2018-12-21T14:15:55.132Z,98763.44
2018-12-21T14:18:24.310Z,98770.08
2018-12-21T14:20:53.074Z,98758.95
2018-12-21T14:23:21.719Z,98760.59
2018-12-21T14:25:50.784Z,98756.92
2018-12-21T14:28:20.553Z,98762.91
2018-12-21T14:30:49.283Z,98764.64
2018-12-21T14:33:18.063Z,98753.97
2018-12-21T14:35:46.816Z,98752.33
2018-12-21T14:38:15.538Z,98756.45
2018-12-21T14:40:44.313Z,98748.66
2018-12-21T14:43:13.037Z,98756.20
2018-12-21T14:45:42.089Z,98754.06
2018-12-21T14:48:10.802Z,98748.41
2018-12-21T14:50:40.190Z,98757.17
2018-12-21T14:53:08.881Z,98763.17
2018-12-21T14:55:37.851Z,98750.23
2018-12-21T14:58:06.801Z,98745.31
2018-12-21T15:00:35.509Z,98753.48
2018-12-21T15:03:04.486Z,98756.22
2018-12-21T15:05:33.174Z,98746.06
2018-12-21T15:08:01.941Z,98752.66
2018-12-21T15:10:30.644Z,98750.61
2018-12-21T15:12:59.351Z,98759.58
2018-12-21T15:15:28.148Z,98755.16
2018-12-21T15:17:57.756Z,98761.39
2018-12-21T15:20:26.501Z,98763.19
2018-12-21T15:22:55.314Z,98763.90
2018-12-21T15:25:24.162Z,98756.80
2018-12-21T15:27:52.877Z,98755.61
2018-12-21T15:30:22.001Z,98759.71
2018-12-21T15:32:50.862Z,98767.10
2018-12-21T15:35:19.562Z,98763.25
2018-12-21T15:37:48.604Z,98770.81
2018-12-21T15:40:17.294Z,98760.61
2018-12-21T15:42:45.990Z,98766.86
2018-12-21T15:45:14.681Z,98763.72
2018-12-21T15:47:43.374Z,98767.54
2018-12-21T15:50:12.487Z,98776.45
2018-12-21T15:52:42.247Z,98775.37
2018-12-21T15:55:10.958Z,98773.11
2018-12-21T15:57:39.742Z,98766.63
2018-12-21T16:00:11.849Z,98778.96
2018-12-21T16:02:42.327Z,98778.60
2018-12-21T16:05:11.100Z,98757.51
2018-12-21T16:07:39.910Z,98767.60
2018-12-21T16:10:09.930Z,98761.61
2018-12-21T16:12:38.808Z,98766.87
2018-12-21T16:15:07.697Z,98771.29
2018-12-21T16:17:36.505Z,98773.70
2018-12-21T16:20:08.595Z,98765.90
2018-12-21T16:22:42.307Z,98766.63
2018-12-21T16:25:08.184Z,98772.47
2018-12-21T16:27:36.842Z,98771.63
2018-12-21T16:30:07.882Z,98768.86
2018-12-21T16:32:36.603Z,98775.47
2018-12-21T16:35:05.405Z,98771.88
2018-12-21T16:37:34.166Z,98769.70
2018-12-21T16:40:03.364Z,98766.78
2018-12-21T16:42:32.081Z,98763.11
2018-12-21T16:45:00.858Z,98763.31
2018-12-21T16:47:29.558Z,98762.51
2018-12-21T16:49:58.252Z,98760.88
2018-12-21T16:52:28.010Z,98765.09
2018-12-21T16:54:57.930Z,98762.91
2018-12-21T16:57:26.792Z,98764.01
2018-12-21T16:59:55.487Z,98770.80
2018-12-21T17:02:24.197Z,98772.39
2018-12-21T17:04:52.985Z,98768.05
2018-12-21T17:07:21.822Z,98777.86
2018-12-21T17:09:50.534Z,98780.39
2018-12-21T17:12:19.205Z,98783.63
2018-12-21T17:14:47.994Z,98786.70
2018-12-21T17:17:16.805Z,98793.86
2018-12-21T17:19:45.574Z,98791.08
2018-12-21T17:22:14.294Z,98797.43
2018-12-21T17:24:43.001Z,98812.61
2018-12-21T17:27:11.753Z,98812.41
2018-12-21T17:29:40.643Z,98804.36
2018-12-21T17:32:09.338Z,98804.95
2018-12-21T17:34:38.087Z,98810.01
2018-12-21T17:37:06.844Z,98800.84
2018-12-21T17:39:36.105Z,98802.08
2018-12-21T17:42:04.827Z,98795.83
2018-12-21T17:44:33.622Z,98797.31
2018-12-21T17:47:02.341Z,98813.54
2018-12-21T17:49:31.071Z,98801.36
2018-12-21T17:52:01.477Z,98803.63
2018-12-21T17:54:30.491Z,98789.73
2018-12-21T17:56:59.222Z,98796.61
2018-12-21T17:59:28.105Z,98793.08
2018-12-21T18:01:56.890Z,98791.39
2018-12-21T18:04:27.971Z,98808.95
2018-12-21T18:06:56.695Z,98805.23
2018-12-21T18:09:28.603Z,98810.16
2018-12-21T18:11:58.226Z,98823.94
2018-12-21T18:14:27.042Z,98813.63
2018-12-21T18:16:55.762Z,98825.79
2018-12-21T18:19:24.439Z,98820.06
2018-12-21T18:22:02.236Z,98813.30
2018-12-21T18:24:30.922Z,98817.02
2018-12-21T18:26:59.694Z,98851.63
2018-12-21T18:29:29.091Z,98822.73
2018-12-21T18:32:36.426Z,98826.09
2018-12-21T18:35:08.698Z,98828.44
2018-12-21T18:37:42.807Z,98841.57
2018-12-21T18:40:12.137Z,98813.85
2018-12-21T18:42:41.003Z,98824.67
2018-12-21T18:45:09.786Z,98819.57
2018-12-21T18:47:38.513Z,98835.66
2018-12-21T18:50:07.486Z,98829.78
2018-12-21T18:52:36.415Z,98838.34
2018-12-21T18:55:06.434Z,98827.48
2018-12-21T18:57:35.119Z,98836.64
2018-12-21T19:00:04.708Z,98843.09
2018-12-21T19:02:33.857Z,98849.87
2018-12-21T19:05:09.290Z,98845.27
2018-12-21T19:07:38.011Z,98859.19
2018-12-21T19:10:08.465Z,98858.74
2018-12-21T19:12:37.475Z,98871.63
2018-12-21T19:15:08.132Z,98880.11
2018-12-21T19:17:37.175Z,98887.26
2018-12-21T19:20:08.505Z,98885.72
2018-12-21T19:22:37.398Z,98904.94
2018-12-21T19:25:07.510Z,98884.28
2018-12-21T19:27:36.274Z,98882.47
2018-12-21T19:30:07.156Z,98872.98
2018-12-21T19:32:35.890Z,98876.20
2018-12-21T19:35:04.819Z,98893.60
2018-12-21T19:37:33.602Z,98904.89
2018-12-21T19:40:02.439Z,98899.42
2018-12-21T19:42:31.290Z,98909.05
2018-12-21T19:45:00.132Z,98924.33
2018-12-21T19:47:28.913Z,98918.06
2018-12-21T19:49:58.457Z,98910.13
2018-12-21T19:52:27.335Z,98910.35
2018-12-21T19:55:03.033Z,98915.05
2018-12-21T19:57:32.435Z,98919.16
2018-12-21T20:00:01.152Z,98936.47
2018-12-21T20:02:29.892Z,98921.94
2018-12-21T20:04:58.622Z,98938.01
2018-12-21T20:07:27.520Z,98927.21
2018-12-21T20:09:56.298Z,98921.38
2018-12-21T20:12:25.129Z,98935.75
2018-12-21T20:14:53.996Z,98935.98
2018-12-21T20:17:22.762Z,98937.22
2018-12-21T20:19:51.506Z,98935.27
2018-12-21T20:22:20.356Z,98941.54
2018-12-21T20:24:49.266Z,98931.70
2018-12-21T20:27:18.421Z,98956.55
2018-12-21T20:29:47.195Z,98955.21
2018-12-21T20:32:16.302Z,98961.83
2018-12-21T20:34:45.120Z,98965.41
2018-12-21T20:37:14.019Z,98997.47
2018-12-21T20:39:45.470Z,98951.00
2018-12-21T20:42:14.242Z,98966.85
2018-12-21T20:44:42.958Z,98967.94
2018-12-21T20:47:12.422Z,98980.19
2018-12-21T20:49:41.250Z,98983.88
2018-12-21T20:52:10.302Z,98975.59
2018-12-21T20:54:39.110Z,98994.17
2018-12-21T20:57:10.557Z,98999.61
2018-12-21T20:59:40.145Z,98997.53
2018-12-21T21:02:08.932Z,98990.61
2018-12-21T21:04:37.663Z,98997.06
2018-12-21T21:07:06.962Z,98997.53
2018-12-21T21:09:35.709Z,99012.29
2018-12-21T21:12:04.494Z,99010.21
2018-12-21T21:14:33.427Z,99019.20
2018-12-21T21:17:02.302Z,99026.97
2018-12-21T21:19:34.899Z,99028.38
2018-12-21T21:22:03.803Z,99024.66
2018-12-21T21:24:32.607Z,99029.30
2018-12-21T21:27:01.403Z,99041.88
2018-12-21T21:29:30.218Z,99041.89
2018-12-21T21:31:59.426Z,99055.41
2018-12-21T21:34:29.138Z,99064.30
2018-12-21T21:36:58.772Z,99054.58
2018-12-21T21:39:27.984Z,99056.38
2018-12-21T21:41:57.183Z,99057.78
2018-12-21T21:44:26.025Z,99064.20
2018-12-21T21:46:54.857Z,99073.55
2018-12-21T21:49:23.576Z,99077.05
2018-12-21T21:51:52.415Z,99078.97
2018-12-21T21:54:21.230Z,99076.58
2018-12-21T21:56:51.058Z,99072.77
2018-12-21T21:59:19.842Z,99075.31
2018-12-21T22:01:49.515Z,99082.84
2018-12-21T22:04:18.282Z,99085.48
2018-12-21T22:06:47.030Z,99096.81
2018-12-21T22:09:16.190Z,99096.57
2018-12-21T22:11:44.852Z,99106.73
2018-12-21T22:14:13.524Z,99106.39
2018-12-21T22:16:42.260Z,99103.17
2018-12-21T22:19:10.966Z,99103.41
2018-12-21T22:21:40.061Z,99119.97
2018-12-21T22:24:08.781Z,99105.45
2018-12-21T22:26:37.538Z,99125.10
2018-12-21T22:29:06.282Z,99124.26
2018-12-21T22:31:36.101Z,99149.75
2018-12-21T22:34:04.831Z,99140.17
2018-12-21T22:36:33.569Z,99140.63
2018-12-21T22:39:03.847Z,99159.20
2018-12-21T22:41:33.008Z,99163.01
2018-12-21T22:44:01.907Z,99160.60
2018-12-21T22:46:30.654Z,99182.12
2018-12-21T22:48:59.404Z,99181.72
2018-12-21T22:51:29.082Z,99195.94
2018-12-21T22:53:58.295Z,99201.77
2018-12-21T22:56:27.343Z,99196.91
2018-12-21T22:58:56.280Z,99203.15
2018-12-21T23:01:25.096Z,99207.42
2018-12-21T23:03:53.835Z,99220.62
2018-12-21T23:06:22.520Z,99225.52
2018-12-21T23:08:51.432Z,99248.91
2018-12-21T23:11:20.218Z,99246.59
2018-12-21T23:13:50.593Z,99247.78
2018-12-21T23:16:19.299Z,99257.45
2018-12-21T23:18:47.982Z,99245.81
2018-12-21T23:21:16.761Z,99284.53
2018-12-21T23:23:45.479Z,99245.07
2018-12-21T23:26:14.350Z,99260.91
2018-12-21T23:28:44.148Z,99268.14
2018-12-21T23:31:12.834Z,99269.33
2018-12-21T23:33:41.531Z,99276.21
2018-12-21T23:36:10.252Z,99281.12
2018-12-21T23:38:38.921Z,99282.88
2018-12-21T23:41:07.726Z,99293.72
2018-12-21T23:43:43.234Z,99292.09
2018-12-21T23:46:07.257Z,99294.16
2018-12-21T23:48:36.088Z,99289.86
2018-12-21T23:51:05.467Z,99310.22
2018-12-21T23:53:34.202Z,99300.86
2018-12-21T23:56:02.911Z,99301.88
2018-12-21T23:58:31.799Z,99304.12
